createdAt,value
2022-10-28T12:00:00.529Z,3.0
2022-10-28T12:05:00.195Z,2.1
2022-10-28T12:10:00.266Z,2.9
2022-10-28T12:15:00.400Z,2.8
2022-10-28T12:20:00.247Z,2.9
2022-10-28T12:25:00.356Z,2.0
2022-10-28T12:30:00.385Z,4.6
2022-10-28T12:35:00.384Z,3.3
2022-10-28T12:40:00.306Z,2.1
2022-10-28T12:45:00.291Z,2.8
2022-10-28T12:50:00.336Z,2.7
2022-10-28T12:55:00.349Z,3.0
2022-10-28T13:00:00.302Z,2.2
2022-10-28T13:05:00.463Z,3.0
2022-10-28T13:10:00.210Z,2.6
2022-10-28T13:15:00.373Z,2.5
2022-10-28T13:20:00.575Z,2.4
2022-10-28T13:25:00.373Z,2.3
2022-10-28T13:30:00.344Z,2.4
2022-10-28T13:35:00.167Z,2.7
2022-10-28T13:40:00.302Z,3.0
2022-10-28T13:45:00.320Z,2.4
2022-10-28T13:50:00.241Z,3.1
2022-10-28T13:55:00.402Z,2.7
2022-10-28T14:00:00.370Z,2.6
2022-10-28T14:05:00.427Z,3.2
2022-10-28T14:10:00.217Z,3.4
2022-10-28T14:15:00.387Z,2.8
2022-10-28T14:20:00.243Z,3.0
2022-10-28T14:25:00.395Z,2.1
2022-10-28T14:30:00.219Z,3.3
2022-10-28T14:35:00.241Z,2.7
2022-10-28T14:40:00.303Z,3.3
2022-10-28T14:45:00.299Z,4.4
2022-10-28T14:50:00.218Z,2.9
2022-10-28T14:55:00.558Z,2.6
2022-10-28T15:00:00.216Z,3.1
2022-10-28T15:05:00.268Z,2.6
2022-10-28T15:10:00.346Z,3.5
2022-10-28T15:15:00.301Z,3.0
2022-10-28T15:20:00.279Z,2.8
2022-10-28T15:25:00.346Z,2.6
2022-10-28T15:30:00.263Z,3.4
2022-10-28T15:35:00.408Z,6.5
2022-10-28T15:40:05.389Z,3.6
2022-10-28T15:45:00.403Z,3.2
2022-10-28T15:50:00.379Z,3.1
2022-10-28T15:55:00.273Z,3.3
2022-10-28T16:00:00.357Z,3.1
2022-10-28T16:05:00.249Z,2.5
2022-10-28T16:10:00.284Z,3.4
2022-10-28T16:15:00.349Z,3.5
2022-10-28T16:20:00.385Z,3.7
2022-10-28T16:25:00.471Z,3.4
2022-10-28T16:30:00.331Z,3.6
2022-10-28T16:35:00.337Z,4.2
2022-10-28T16:40:00.360Z,3.8
2022-10-28T16:45:00.157Z,3.4
2022-10-28T16:50:00.374Z,3.7
2022-10-28T16:55:00.321Z,3.5
2022-10-28T17:00:00.290Z,3.0
2022-10-28T17:05:00.271Z,5.9
2022-10-28T17:10:00.357Z,4.1
2022-10-28T17:15:00.506Z,3.5
2022-10-28T17:20:00.202Z,3.6
2022-10-28T17:25:00.397Z,3.0
2022-10-28T17:30:00.318Z,4.0
2022-10-28T17:35:00.291Z,5.0
2022-10-28T17:40:00.497Z,4.2
2022-10-28T17:45:00.355Z,5.0
2022-10-28T17:50:00.290Z,5.1
2022-10-28T17:55:00.457Z,6.3
2022-10-28T18:00:00.515Z,7.1
2022-10-28T18:05:00.252Z,6.1
2022-10-28T18:10:00.324Z,7.8
2022-10-28T18:15:00.384Z,5.8
2022-10-28T18:20:00.302Z,5.8
2022-10-28T18:25:00.158Z,6.4
2022-10-28T18:30:00.438Z,6.6
2022-10-28T18:35:00.395Z,6.6
2022-10-28T18:40:00.406Z,6.5
2022-10-28T18:45:00.430Z,7.9
2022-10-28T18:50:00.541Z,11.9
2022-10-28T18:55:00.167Z,11.4
2022-10-28T19:00:19.011Z,9.5
2022-10-28T19:05:00.269Z,7.8
2022-10-28T19:10:00.287Z,5.5
2022-10-28T19:15:00.282Z,6.1
2022-10-28T19:20:00.373Z,4.3
2022-10-28T19:25:00.326Z,5.0
2022-10-28T19:30:00.400Z,3.8
2022-10-28T19:35:00.356Z,4.7
2022-10-28T19:40:00.461Z,5.1
2022-10-28T19:45:00.204Z,4.7
2022-10-28T19:50:00.334Z,5.4
2022-10-28T19:55:00.334Z,4.7
2022-10-28T20:00:00.398Z,4.4
2022-10-28T20:05:00.275Z,4.7
2022-10-28T20:10:00.591Z,5.1
2022-10-28T20:15:00.415Z,5.1
2022-10-28T20:20:00.238Z,5.0
2022-10-28T20:25:00.356Z,5.6
2022-10-28T20:30:00.234Z,5.5
2022-10-28T20:35:00.225Z,5.5
2022-10-28T20:40:04.529Z,5.0
2022-10-28T20:45:00.287Z,5.1
2022-10-28T20:50:00.272Z,5.5
2022-10-28T20:55:00.231Z,6.0
2022-10-28T21:00:00.302Z,5.1
2022-10-28T21:05:00.433Z,6.8
2022-10-28T21:10:00.345Z,6.8
2022-10-28T21:15:00.455Z,5.5
2022-10-28T21:25:00.293Z,5.8
2022-10-28T21:30:00.386Z,6.1
2022-10-28T21:35:00.311Z,5.4
2022-10-28T21:40:01.177Z,5.0
2022-10-28T21:45:00.398Z,5.4
2022-10-28T21:50:00.391Z,5.7
2022-10-28T21:55:05.994Z,5.3
2022-10-28T22:00:00.252Z,5.8
2022-10-28T22:05:00.334Z,5.6
2022-10-28T22:10:00.168Z,5.7
2022-10-28T22:15:00.327Z,5.3
2022-10-28T22:20:00.475Z,5.3
2022-10-28T22:25:00.164Z,6.5
2022-10-28T22:30:00.241Z,5.0
2022-10-28T22:40:00.445Z,5.4
2022-10-28T22:45:00.355Z,5.1
2022-10-28T23:10:00.344Z,5.3
2022-10-28T23:15:00.156Z,5.5
2022-10-28T23:20:00.318Z,5.1
2022-10-28T23:25:00.279Z,5.2
2022-10-28T23:30:00.555Z,6.5
2022-10-28T23:35:00.278Z,5.2
2022-10-28T23:40:00.552Z,5.1
2022-10-28T23:45:00.254Z,5.9
2022-10-28T23:50:00.337Z,5.6
2022-10-28T23:55:00.174Z,5.6
